Pagrindinis puslapis
METAR-TAF:

METAR-TAF

Oro uostai :

Hamadanas, Iranas

platuma: 34-52-05N, ilguma: 048-33-08E, Aukštis: 1757 m

Dabartinis oras

Ataskaita buvo paskelbta 40 minutes, ne 07:00 UTC
Vėjas 4 kt iš Šiaurės
Temperatūra 20°C
Drėgmė 43%
Slėgis 1020 hPa
Matomumas 10 km arba daugiau
Mažai debesys ne aukštis 4000 ft

METAR: OIHH 140700Z 01004KT 9999 FEW040 20/07 Q1020

Laikas: 12:10 (07:40 UTC)


TAF: trūkstamas

Orai ataskaitas ir orų prognozės (METAR, TAF).

turimą stotys yra geltonos ir raudonos taškus žemėlapyje.

Perkelti pele per norėdami pamatyti stoties vardą.

Tada spustelėkite, norėdami matyti oro stebėjimo ir prognozės.

Norėdami pakeisti žemėlapį: spustelėkite ant žalios mygtukų su juodo kryžiaus žemyn,; žalią mygtuką su brūkšneliu, jei norite nutolinti; arba žalių rodyklių gretimoms žemėlapius.


METAR-TAF: